createdAt,value
2023-03-29T00:02:43.357Z,24.44
2023-03-29T00:06:43.334Z,24.44
2023-03-29T00:10:43.398Z,24.47
2023-03-29T00:14:43.445Z,24.46
2023-03-29T00:18:43.449Z,24.44
2023-03-29T00:22:43.476Z,24.44
2023-03-29T00:26:43.438Z,24.46
2023-03-29T00:30:43.425Z,24.44
2023-03-29T00:34:43.421Z,24.47
2023-03-29T00:38:43.402Z,24.44
2023-03-29T00:42:43.438Z,24.44
2023-03-29T00:46:44.441Z,24.43
2023-03-29T00:50:43.369Z,24.43
2023-03-29T00:54:43.364Z,24.43
2023-03-29T00:58:43.368Z,24.43
2023-03-29T01:02:43.506Z,24.43
2023-03-29T01:06:43.539Z,24.41
2023-03-29T01:10:43.389Z,24.38
2023-03-29T01:14:43.404Z,24.40
2023-03-29T01:18:43.364Z,24.41
2023-03-29T01:22:43.375Z,24.40
2023-03-29T01:26:43.321Z,24.40
2023-03-29T01:30:43.319Z,24.37
2023-03-29T01:34:43.297Z,24.38
2023-03-29T01:38:43.273Z,24.37
2023-03-29T01:42:43.235Z,24.37
2023-03-29T01:46:43.212Z,24.38
2023-03-29T01:50:43.211Z,24.37
2023-03-29T01:54:43.188Z,24.36
2023-03-29T01:58:43.205Z,24.37
2023-03-29T02:02:43.216Z,24.37
2023-03-29T02:06:43.156Z,24.37
2023-03-29T02:10:43.108Z,24.33
2023-03-29T02:14:43.109Z,24.36
2023-03-29T02:18:43.080Z,24.31
2023-03-29T02:22:43.082Z,24.31
2023-03-29T02:26:43.071Z,24.30
2023-03-29T02:30:43.067Z,24.27
2023-03-29T02:34:43.103Z,24.28
2023-03-29T02:38:43.069Z,24.27
2023-03-29T02:42:43.069Z,24.27
2023-03-29T02:46:43.169Z,24.27
2023-03-29T02:50:43.119Z,24.26
2023-03-29T02:54:43.156Z,24.26
2023-03-29T02:58:43.186Z,24.24
2023-03-29T03:02:43.251Z,24.21
2023-03-29T03:06:43.203Z,24.20
2023-03-29T03:10:43.246Z,24.19
2023-03-29T03:14:43.276Z,24.19
2023-03-29T03:18:43.325Z,24.17
2023-03-29T03:22:43.338Z,24.14
2023-03-29T03:26:43.409Z,24.16
2023-03-29T03:30:43.443Z,24.16
2023-03-29T03:34:43.507Z,24.19
2023-03-29T03:38:43.525Z,24.16
2023-03-29T03:42:43.494Z,24.19
2023-03-29T03:46:43.538Z,24.16
2023-03-29T03:50:43.575Z,24.14
2023-03-29T03:54:43.639Z,24.14
2023-03-29T03:58:43.706Z,24.14
2023-03-29T04:02:43.805Z,24.13
2023-03-29T04:06:43.930Z,24.12
2023-03-29T04:10:43.819Z,24.07
2023-03-29T04:14:43.888Z,24.07
2023-03-29T04:18:44.107Z,24.06
2023-03-29T04:22:43.989Z,24.06
2023-03-29T04:26:44.064Z,24.02
2023-03-29T04:30:44.136Z,24.03
2023-03-29T04:34:44.145Z,24.02
2023-03-29T04:38:47.327Z,24.03
2023-03-29T04:42:44.136Z,24.03
2023-03-29T04:46:44.159Z,24.02
2023-03-29T04:50:46.010Z,24.02
2023-03-29T04:54:44.018Z,24.02
2023-03-29T04:58:43.970Z,24.07
2023-03-29T05:02:44.034Z,24.05
2023-03-29T05:06:43.919Z,24.12
2023-03-29T05:10:43.873Z,24.12
2023-03-29T05:14:43.917Z,24.10
2023-03-29T05:18:43.948Z,24.12
2023-03-29T05:22:44.034Z,24.12
2023-03-29T05:26:44.004Z,24.12
2023-03-29T05:30:44.099Z,24.12
2023-03-29T05:34:44.132Z,24.10
2023-03-29T05:38:44.183Z,24.13
2023-03-29T05:42:44.201Z,24.19
2023-03-29T05:46:44.276Z,24.24
2023-03-29T05:50:46.209Z,24.34
2023-03-29T05:54:44.221Z,24.40
2023-03-29T05:58:44.494Z,24.50
2023-03-29T06:02:44.511Z,24.61
2023-03-29T06:06:44.520Z,24.70
2023-03-29T06:10:44.345Z,24.82
2023-03-29T06:14:44.308Z,24.95
2023-03-29T06:18:44.281Z,25.07
2023-03-29T06:22:44.202Z,25.16
2023-03-29T06:26:44.212Z,25.25
2023-03-29T06:30:44.181Z,25.22
2023-03-29T06:34:44.226Z,24.92
2023-03-29T06:38:44.107Z,24.65
2023-03-29T06:42:44.063Z,24.50
2023-03-29T06:46:44.061Z,24.53
2023-03-29T06:50:44.026Z,24.74
2023-03-29T06:54:44.059Z,24.98
2023-03-29T06:58:43.909Z,25.12
2023-03-29T07:02:44.094Z,25.23
2023-03-29T07:06:43.946Z,25.38
2023-03-29T07:10:44.039Z,25.49
2023-03-29T07:14:46.193Z,25.59
2023-03-29T07:18:43.930Z,25.72
2023-03-29T07:22:44.076Z,25.77
2023-03-29T07:26:52.206Z,25.79
2023-03-29T07:35:02.816Z,25.97
2023-03-29T07:39:02.823Z,26.07
2023-03-29T07:43:02.525Z,26.11
2023-03-29T07:47:02.816Z,26.16
2023-03-29T07:51:03.033Z,26.10
2023-03-29T07:55:02.421Z,25.94
2023-03-29T07:59:02.425Z,25.80
2023-03-29T08:03:02.449Z,25.72
2023-03-29T08:07:02.306Z,25.63
2023-03-29T08:11:02.416Z,25.56
2023-03-29T08:15:02.266Z,25.49
2023-03-29T08:19:02.208Z,25.46
2023-03-29T08:23:02.193Z,25.40
2023-03-29T08:27:02.144Z,25.36
2023-03-29T08:31:02.316Z,25.33
2023-03-29T08:35:02.073Z,25.30
2023-03-29T08:39:02.352Z,25.30
2023-03-29T08:43:02.361Z,25.33
2023-03-29T08:47:02.281Z,25.35
2023-03-29T08:51:02.442Z,25.35
2023-03-29T08:55:02.850Z,25.38
2023-03-29T08:59:02.453Z,25.39
2023-03-29T09:03:02.629Z,25.43
2023-03-29T09:07:02.897Z,25.46
2023-03-29T09:11:02.780Z,25.25
2023-03-29T09:15:02.708Z,25.23
2023-03-29T09:19:02.845Z,25.32
2023-03-29T09:23:02.877Z,25.42
2023-03-29T09:27:02.977Z,25.52
2023-03-29T09:31:03.109Z,25.65
2023-03-29T09:35:02.938Z,25.76
2023-03-29T09:39:03.364Z,25.84
2023-03-29T09:43:03.388Z,25.89
2023-03-29T09:47:03.335Z,25.97
2023-03-29T09:51:03.689Z,26.00
2023-03-29T09:55:03.245Z,26.01
2023-03-29T09:59:03.229Z,26.13
2023-03-29T10:03:03.203Z,26.21
2023-03-29T10:07:03.123Z,26.30
2023-03-29T10:11:03.343Z,26.32
2023-03-29T10:15:03.050Z,26.31
2023-03-29T10:19:03.034Z,26.34
2023-03-29T10:23:02.963Z,26.42
2023-03-29T10:27:02.919Z,26.41
2023-03-29T10:31:03.234Z,26.42
2023-03-29T10:35:02.909Z,26.42
2023-03-29T10:39:05.618Z,26.50
2023-03-29T10:43:02.804Z,26.58
2023-03-29T10:47:02.775Z,26.61
2023-03-29T10:51:02.974Z,26.72
2023-03-29T10:55:02.730Z,26.75
2023-03-29T10:59:02.679Z,26.81
2023-03-29T11:03:02.668Z,26.85
2023-03-29T11:07:02.599Z,26.92
2023-03-29T11:11:02.776Z,26.92
2023-03-29T11:15:02.539Z,26.95
2023-03-29T11:19:02.478Z,26.95
2023-03-29T11:23:02.445Z,26.98
2023-03-29T11:27:02.911Z,26.91
2023-03-29T11:31:03.154Z,27.06
2023-03-29T11:35:02.712Z,27.16
2023-03-29T11:39:02.665Z,27.14
2023-03-29T11:43:02.776Z,27.07
2023-03-29T11:47:02.682Z,27.02
2023-03-29T11:51:02.719Z,26.96
2023-03-29T11:55:02.601Z,26.91
2023-03-29T11:59:02.527Z,26.83
2023-03-29T12:03:02.517Z,26.81
2023-03-29T12:07:02.409Z,26.78
2023-03-29T12:11:02.571Z,26.75
2023-03-29T12:15:02.404Z,26.71
2023-03-29T12:19:02.321Z,26.69
2023-03-29T12:23:02.307Z,26.71
2023-03-29T12:27:02.257Z,26.71
2023-03-29T12:31:02.434Z,26.72
2023-03-29T12:35:02.241Z,26.69
2023-03-29T12:39:02.181Z,26.69
2023-03-29T12:43:02.135Z,26.68
2023-03-29T12:47:02.055Z,26.67
2023-03-29T12:51:02.110Z,26.67
2023-03-29T12:55:02.028Z,26.69
2023-03-29T12:59:01.971Z,26.67
2023-03-29T13:03:01.959Z,26.71
2023-03-29T13:07:01.940Z,26.69
2023-03-29T13:11:01.869Z,26.65
2023-03-29T13:15:01.873Z,26.62
2023-03-29T13:19:01.813Z,26.56
2023-03-29T13:23:01.797Z,26.54
2023-03-29T13:27:01.723Z,26.50
2023-03-29T13:31:01.774Z,26.45
2023-03-29T13:35:01.667Z,26.41
2023-03-29T13:39:01.639Z,26.35
2023-03-29T13:43:02.463Z,26.32
2023-03-29T13:47:01.672Z,26.28
2023-03-29T13:51:01.573Z,26.21
2023-03-29T13:55:01.675Z,26.20
2023-03-29T13:59:01.861Z,26.16
2023-03-29T14:03:02.149Z,26.11
2023-03-29T14:07:02.226Z,26.11
2023-03-29T14:11:02.447Z,26.07
2023-03-29T14:15:02.668Z,26.05
2023-03-29T14:19:02.869Z,26.07
2023-03-29T14:23:03.082Z,26.11
2023-03-29T14:27:03.286Z,26.07
2023-03-29T14:31:03.229Z,26.04
2023-03-29T14:35:03.291Z,26.00
2023-03-29T14:39:03.183Z,25.97
2023-03-29T14:43:03.119Z,25.96
2023-03-29T14:47:03.091Z,25.91
2023-03-29T14:51:03.061Z,25.93
2023-03-29T14:55:03.043Z,25.90
2023-03-29T14:59:03.021Z,25.89
2023-03-29T15:03:03.090Z,25.86
2023-03-29T15:07:02.959Z,25.83
2023-03-29T15:11:02.940Z,25.80
2023-03-29T15:15:02.904Z,25.80
2023-03-29T15:19:02.869Z,25.76
2023-03-29T15:23:02.852Z,25.77
2023-03-29T15:27:02.786Z,25.76
2023-03-29T15:31:07.943Z,25.75
2023-03-29T15:35:03.741Z,25.76
2023-03-29T15:39:02.700Z,25.76
2023-03-29T15:43:02.941Z,25.79
2023-03-29T15:47:03.166Z,25.77
2023-03-29T15:51:06.360Z,25.79
2023-03-29T15:55:03.285Z,25.79
2023-03-29T15:59:03.250Z,25.79
2023-03-29T16:03:03.241Z,25.79
2023-03-29T16:07:03.155Z,25.77
2023-03-29T16:11:03.149Z,25.80
2023-03-29T16:15:03.099Z,25.79
2023-03-29T16:19:03.085Z,25.79
2023-03-29T16:23:03.152Z,25.77
2023-03-29T16:27:03.339Z,25.76
2023-03-29T16:31:03.463Z,25.75
2023-03-29T16:35:03.650Z,25.76
2023-03-29T16:39:03.807Z,25.73
2023-03-29T16:43:03.834Z,25.69
2023-03-29T16:47:03.820Z,25.67
2023-03-29T16:51:03.837Z,25.66
2023-03-29T16:55:03.876Z,25.65
2023-03-29T16:59:03.878Z,25.60
2023-03-29T17:03:03.866Z,25.62
2023-03-29T17:07:03.856Z,25.62
2023-03-29T17:11:03.829Z,25.60
2023-03-29T17:15:03.791Z,25.56
2023-03-29T17:19:03.814Z,25.53
2023-03-29T17:23:03.804Z,25.50
2023-03-29T17:27:03.821Z,25.52
2023-03-29T17:31:03.799Z,25.49
2023-03-29T17:35:03.816Z,25.48
2023-03-29T17:39:03.780Z,25.45
2023-03-29T17:43:03.804Z,25.46
2023-03-29T17:47:03.981Z,25.43
2023-03-29T17:51:03.841Z,25.42
2023-03-29T17:55:03.888Z,25.42
2023-03-29T17:59:03.892Z,25.40
2023-03-29T18:03:03.964Z,25.39
2023-03-29T18:07:03.971Z,25.38
2023-03-29T18:11:04.007Z,25.40
2023-03-29T18:15:04.085Z,25.36
2023-03-29T18:19:04.129Z,25.35
2023-03-29T18:23:04.199Z,25.35
2023-03-29T18:27:04.276Z,25.33
2023-03-29T18:31:04.333Z,25.30
2023-03-29T18:35:04.387Z,25.29
2023-03-29T18:39:04.423Z,25.29
2023-03-29T18:43:04.501Z,25.30
2023-03-29T18:47:04.548Z,25.26
2023-03-29T18:51:05.660Z,25.25
2023-03-29T18:55:04.693Z,25.26
2023-03-29T18:59:04.785Z,25.23
2023-03-29T19:03:04.908Z,25.22
2023-03-29T19:07:04.976Z,25.21
2023-03-29T19:11:05.048Z,25.19
2023-03-29T19:15:05.148Z,25.21
2023-03-29T19:19:05.229Z,25.18
2023-03-29T19:23:05.346Z,25.18
2023-03-29T19:27:05.446Z,25.16
2023-03-29T19:31:05.589Z,25.16
2023-03-29T19:35:05.666Z,25.12
2023-03-29T19:39:05.785Z,25.12
2023-03-29T19:43:05.910Z,25.09
2023-03-29T19:47:06.084Z,25.11
2023-03-29T19:51:06.136Z,25.09
2023-03-29T19:55:06.260Z,25.09
2023-03-29T19:59:06.408Z,25.05
2023-03-29T20:03:06.618Z,25.02
2023-03-29T20:07:06.635Z,25.04
2023-03-29T20:11:07.089Z,25.02
2023-03-29T20:15:06.927Z,25.04
2023-03-29T20:19:07.050Z,25.04
2023-03-29T20:23:07.226Z,24.99
2023-03-29T20:27:07.341Z,25.02
2023-03-29T20:31:07.473Z,24.99
2023-03-29T20:35:07.626Z,25.01
2023-03-29T20:39:07.744Z,25.01
2023-03-29T20:43:07.902Z,24.99
2023-03-29T20:47:08.050Z,24.99
2023-03-29T20:51:08.152Z,24.98
2023-03-29T20:55:08.280Z,24.99
2023-03-29T20:59:08.427Z,24.97
2023-03-29T21:03:08.837Z,24.97
2023-03-29T21:07:08.706Z,24.95
2023-03-29T21:11:08.837Z,24.94
2023-03-29T21:15:09.005Z,24.92
2023-03-29T21:19:09.184Z,24.92
2023-03-29T21:23:09.326Z,24.87
2023-03-29T21:27:09.495Z,24.88
2023-03-29T21:31:09.715Z,24.88
2023-03-29T21:35:09.859Z,24.85
2023-03-29T21:39:10.025Z,24.84
2023-03-29T21:43:10.174Z,24.82
2023-03-29T21:47:10.378Z,24.82
2023-03-29T21:51:10.574Z,24.81
2023-03-29T21:55:10.808Z,24.82
2023-03-29T21:59:10.979Z,24.78
2023-03-29T22:03:11.255Z,24.75
2023-03-29T22:07:11.377Z,24.77
2023-03-29T22:11:11.593Z,24.77
2023-03-29T22:15:11.772Z,24.77
2023-03-29T22:19:11.964Z,24.75
2023-03-29T22:23:12.190Z,24.75
2023-03-29T22:27:12.411Z,24.74
2023-03-29T22:31:12.601Z,24.72
2023-03-29T22:35:12.835Z,24.75
2023-03-29T22:39:13.028Z,24.75
2023-03-29T22:43:13.272Z,24.72
2023-03-29T22:47:13.464Z,24.70
2023-03-29T22:51:13.409Z,24.70
2023-03-29T22:55:13.376Z,24.68
2023-03-29T22:59:13.326Z,24.67
2023-03-29T23:03:13.300Z,24.64
2023-03-29T23:07:13.260Z,24.64
2023-03-29T23:11:13.273Z,24.63
2023-03-29T23:15:13.199Z,24.61
2023-03-29T23:19:13.182Z,24.58
2023-03-29T23:23:13.121Z,24.58
2023-03-29T23:27:13.088Z,24.56
2023-03-29T23:31:13.057Z,24.54
2023-03-29T23:35:13.005Z,24.53
2023-03-29T23:39:12.958Z,24.54
2023-03-29T23:43:12.921Z,24.53
2023-03-29T23:47:12.902Z,24.54
2023-03-29T23:51:12.836Z,24.56
2023-03-29T23:55:12.842Z,24.54
2023-03-29T23:59:12.767Z,24.57
